Time;durP1;ratioP1;P1;durP2;ratioP2;P2;SDS_P1;SDS_P2;PMS_P1;PMS_P2;Temp;Humidity;BMP_temperature;BMP_pressure;BME280_temperature;BME280_humidity;BME280_pressure;Samples;Min_cycle;Max_cycle;Signal;HPM_P1;HPM_P2
2023/01/19 00:01:35;;;;;;;6.68;5.20;;;;;;;7.15;100.00;98671.53;5109139;28;20099;-69
2023/01/19 00:04:01;;;;;;;6.90;5.43;;;;;;;7.14;100.00;98664.53;5108335;28;20434;-69
2023/01/19 00:06:26;;;;;;;6.93;4.93;;;;;;;7.12;100.00;98665.69;5108953;28;20016;-69
2023/01/19 00:08:52;;;;;;;6.35;5.03;;;;;;;7.12;100.00;98676.34;5108104;28;20128;-69
2023/01/19 00:11:17;;;;;;;6.70;5.18;;;;;;;7.10;100.00;98673.00;5108330;28;20035;-70
2023/01/19 00:13:49;;;;;;;7.22;5.43;;;;;;;7.10;100.00;98673.00;5109436;28;20543;-70
2023/01/19 00:16:17;;;;;;;6.90;5.63;;;;;;;7.00;100.00;98655.25;5107787;28;20028;-69
2023/01/19 00:18:45;;;;;;;7.38;5.30;;;;;;;6.93;100.00;98643.53;5109586;28;20085;-69
2023/01/19 00:21:13;;;;;;;6.95;5.53;;;;;;;6.84;100.00;98622.31;5107145;28;20040;-70
2023/01/19 00:23:39;;;;;;;7.30;5.90;;;;;;;6.87;100.00;98630.81;5109402;28;20398;-69
2023/01/19 00:26:05;;;;;;;7.55;5.63;;;;;;;6.84;100.00;98616.97;5109547;28;20020;-70
2023/01/19 00:28:30;;;;;;;6.78;5.22;;;;;;;6.81;100.00;98607.44;5109274;28;20391;-70
2023/01/19 00:30:55;;;;;;;6.47;5.43;;;;;;;6.75;100.00;98600.03;5107675;28;20027;-70
2023/01/19 00:33:21;;;;;;;7.25;6.00;;;;;;;6.77;100.00;98602.56;5109186;28;20047;-69
2023/01/19 00:35:51;;;;;;;7.07;5.65;;;;;;;6.76;100.00;98616.88;5109009;28;20098;-69
2023/01/19 00:38:17;;;;;;;6.57;5.88;;;;;;;6.73;100.00;98617.19;5108008;28;20142;-69
2023/01/19 00:40:42;;;;;;;7.38;5.63;;;;;;;6.67;100.00;98610.63;5107782;28;20030;-69
2023/01/19 00:43:08;;;;;;;7.60;5.57;;;;;;;6.76;100.00;98615.06;5109330;28;20121;-70
2023/01/19 00:45:34;;;;;;;7.22;6.40;;;;;;;6.72;100.00;98611.03;5107295;28;20486;-69
2023/01/19 00:47:59;;;;;;;7.05;6.03;;;;;;;6.75;100.00;98615.22;5108064;28;20019;-69
2023/01/19 00:50:27;;;;;;;8.30;6.63;;;;;;;6.73;100.00;98619.84;5109061;28;20063;-69
2023/01/19 00:52:55;;;;;;;9.57;7.25;;;;;;;6.74;100.00;98625.03;5108812;28;20383;-69
2023/01/19 00:55:20;;;;;;;9.85;7.03;;;;;;;6.65;100.00;98598.47;5108918;28;20080;-70
2023/01/19 00:57:46;;;;;;;8.73;7.40;;;;;;;6.66;100.00;98597.47;5108816;28;20024;-70
2023/01/19 01:00:16;;;;;;;9.43;7.65;;;;;;;6.71;100.00;98605.84;5109867;28;20019;-69
2023/01/19 01:02:43;;;;;;;10.15;7.22;;;;;;;6.70;100.00;98589.03;5112567;28;20487;-69
2023/01/19 01:05:09;;;;;;;10.02;7.88;;;;;;;6.75;100.00;98578.72;5112807;28;20034;-70
2023/01/19 01:07:43;;;;;;;10.50;7.47;;;;;;;6.68;100.00;98569.69;5112879;28;20122;-70
2023/01/19 01:10:14;;;;;;;12.25;8.35;;;;;;;6.68;100.00;98555.56;5111351;28;20066;-70
2023/01/19 01:12:41;;;;;;;10.35;8.50;;;;;;;6.66;100.00;98561.03;5112523;28;20028;-69
2023/01/19 01:15:09;;;;;;;10.75;8.20;;;;;;;6.64;100.00;98552.34;5112675;28;20055;-69
2023/01/19 01:17:35;;;;;;;11.23;8.43;;;;;;;6.65;100.00;98570.00;5111416;28;20023;-69
2023/01/19 01:20:01;;;;;;;11.75;9.13;;;;;;;6.65;100.00;98595.81;5113046;28;20665;-69
2023/01/19 01:22:26;;;;;;;11.90;9.27;;;;;;;6.62;100.00;98596.13;5112196;28;20067;-69
2023/01/19 01:24:52;;;;;;;12.68;9.82;;;;;;;6.65;100.00;98603.81;5112272;28;20028;-69
2023/01/19 01:27:17;;;;;;;12.85;9.27;;;;;;;6.64;100.00;98600.28;5112329;28;20372;-69
2023/01/19 01:29:45;;;;;;;11.80;9.18;;;;;;;6.68;100.00;98604.31;5112199;28;20032;-69
2023/01/19 01:32:12;;;;;;;12.20;9.77;;;;;;;6.69;100.00;98594.50;5112181;28;20066;-69
2023/01/19 01:34:38;;;;;;;12.80;10.05;;;;;;;6.69;100.00;98591.84;5112160;28;20035;-70
2023/01/19 01:37:07;;;;;;;11.98;9.35;;;;;;;6.71;100.00;98579.22;5112269;27;20057;-70
2023/01/19 01:39:35;;;;;;;14.48;10.30;;;;;;;6.61;100.00;98557.97;5111512;28;20483;-70
2023/01/19 01:42:01;;;;;;;11.95;9.38;;;;;;;6.69;100.00;98568.72;5110892;28;20046;-69
2023/01/19 01:44:50;;;;;;;11.73;8.90;;;;;;;6.74;100.00;98577.06;5112232;28;20080;-69
2023/01/19 01:47:35;;;;;;;11.48;9.50;;;;;;;6.74;100.00;98586.91;5111042;28;20032;-70
2023/01/19 01:50:13;;;;;;;12.07;9.77;;;;;;;6.74;100.00;98582.41;5109120;28;20051;-70
2023/01/19 01:52:45;;;;;;;11.80;8.48;;;;;;;6.77;100.00;98576.78;5111874;28;20034;-70
2023/01/19 01:55:12;;;;;;;11.18;9.23;;;;;;;6.75;100.00;98567.25;5111623;28;20537;-69
2023/01/19 01:57:42;;;;;;;13.45;9.48;;;;;;;6.76;100.00;98559.13;5112219;28;20028;-69
2023/01/19 02:00:09;;;;;;;11.02;9.18;;;;;;;6.70;100.00;98545.56;5112190;28;20709;-70
2023/01/19 02:02:50;;;;;;;11.15;8.73;;;;;;;6.70;100.00;98548.22;5111843;28;20027;-70
2023/01/19 02:05:28;;;;;;;11.68;8.68;;;;;;;6.73;100.00;98563.91;5111555;28;20540;-70
2023/01/19 02:13:47;;;;;;;11.18;9.43;;;;;;;6.74;100.00;98568.25;5108688;28;20038;-69
2023/01/19 02:16:14;;;;;;;13.20;10.15;;;;;;;6.70;100.00;98565.06;5111367;28;20483;-69
2023/01/19 02:18:42;;;;;;;11.25;9.45;;;;;;;6.67;100.00;98565.38;5111500;28;20075;-70
2023/01/19 02:21:30;;;;;;;10.63;9.50;;;;;;;6.68;100.00;98575.00;5109049;28;20043;-70
2023/01/19 02:23:57;;;;;;;12.05;9.77;;;;;;;6.68;100.00;98585.66;5111069;28;20027;-69
2023/01/19 02:26:38;;;;;;;11.48;8.95;;;;;;;6.68;100.00;98564.38;5111540;28;20116;-69
2023/01/19 02:29:25;;;;;;;11.20;9.23;;;;;;;6.69;100.00;98543.91;5111156;28;20073;-70
2023/01/19 02:31:51;;;;;;;13.27;10.60;;;;;;;6.67;100.00;98533.41;5109564;28;20116;-69
2023/01/19 02:34:19;;;;;;;11.43;8.82;;;;;;;6.65;100.00;98539.88;5111174;28;20568;-69
2023/01/19 02:36:58;;;;;;;11.55;9.48;;;;;;;6.68;100.00;98558.22;5110637;28;20472;-70
2023/01/19 02:39:29;;;;;;;12.88;9.25;;;;;;;6.75;100.00;98553.94;5111153;28;20019;-69
2023/01/19 02:42:01;;;;;;;11.23;8.05;;;;;;;6.74;100.00;98553.09;5111303;27;20031;-69
2023/01/19 02:44:29;;;;;;;10.45;8.80;;;;;;;6.75;100.00;98569.94;5110086;28;20023;-70
2023/01/19 02:46:55;;;;;;;10.20;8.43;;;;;;;6.76;100.00;98580.44;5109673;28;20475;-69
2023/01/19 02:49:21;;;;;;;10.52;8.63;;;;;;;6.73;100.00;98550.59;5109091;28;20031;-70
2023/01/19 02:51:47;;;;;;;10.38;8.63;;;;;;;6.80;100.00;98557.81;5110145;27;20051;-70
2023/01/19 02:54:27;;;;;;;9.75;8.43;;;;;;;6.80;100.00;98565.81;5110700;28;20035;-69
2023/01/19 02:57:25;;;;;;;10.40;8.20;;;;;;;6.83;100.00;98600.13;5108775;28;20039;-70
2023/01/19 03:00:06;;;;;;;10.63;8.40;;;;;;;6.83;100.00;98597.47;5106318;28;20039;-69
2023/01/19 03:02:46;;;;;;;11.43;8.95;;;;;;;6.81;100.00;98590.63;5110769;28;20054;-69
2023/01/19 03:05:11;;;;;;;9.75;8.43;;;;;;;6.83;100.00;98604.63;5108392;28;20050;-69
2023/01/19 03:07:45;;;;;;;11.27;9.13;;;;;;;6.80;100.00;98615.56;5108648;28;20048;-69
2023/01/19 03:10:32;;;;;;;11.07;8.88;;;;;;;6.81;100.00;98628.75;5108449;28;20054;-70
2023/01/19 03:13:11;;;;;;;11.02;9.55;;;;;;;6.80;100.00;98621.75;5109965;28;20077;-69
2023/01/19 03:15:47;;;;;;;11.40;9.10;;;;;;;6.80;100.00;98611.09;5107830;28;20036;-70
2023/01/19 03:18:16;;;;;;;11.38;9.25;;;;;;;6.86;100.00;98615.81;5106486;28;20118;-69
2023/01/19 03:20:44;;;;;;;11.65;9.30;;;;;;;6.87;100.00;98622.81;5109720;28;20039;-70
2023/01/19 03:23:12;;;;;;;14.23;10.48;;;;;;;6.79;100.00;98585.47;5107823;28;20452;-69
2023/01/19 03:25:42;;;;;;;11.90;9.82;;;;;;;6.85;100.00;98592.84;5108573;28;20020;-69
2023/01/19 03:28:08;;;;;;;13.25;10.57;;;;;;;6.87;100.00;98582.84;5108443;28;20437;-70
2023/01/19 03:30:46;;;;;;;14.25;11.38;;;;;;;6.79;100.00;98566.81;5109488;28;20031;-69
2023/01/19 03:33:20;;;;;;;14.77;11.55;;;;;;;6.84;100.00;98582.34;5109612;28;20115;-70
2023/01/19 03:35:50;;;;;;;13.07;10.45;;;;;;;6.85;100.00;98598.16;5109061;28;20038;-70
2023/01/19 03:38:20;;;;;;;13.65;11.13;;;;;;;6.83;100.00;98602.81;5109786;28;20035;-70
2023/01/19 03:40:46;;;;;;;13.07;10.30;;;;;;;6.85;100.00;98586.66;5109763;28;20089;-71
2023/01/19 03:43:15;;;;;;;14.30;11.23;;;;;;;6.81;100.00;98583.47;5109451;28;20031;-70
2023/01/19 03:45:42;;;;;;;12.85;10.40;;;;;;;6.87;100.00;98595.34;5109215;28;20024;-70
2023/01/19 03:48:08;;;;;;;14.65;11.25;;;;;;;6.88;100.00;98605.84;5108772;28;20019;-71
2023/01/19 03:50:34;;;;;;;13.90;11.20;;;;;;;6.85;100.00;98582.19;5109286;27;20404;-70
2023/01/19 03:53:04;;;;;;;14.75;11.52;;;;;;;6.90;100.00;98590.53;5109330;28;20487;-71
2023/01/19 03:55:29;;;;;;;16.30;11.55;;;;;;;6.88;100.00;98595.19;5109344;28;20542;-70
2023/01/19 03:57:55;;;;;;;15.35;11.15;;;;;;;6.87;100.00;98580.19;5109287;28;20047;-71
2023/01/19 04:00:20;;;;;;;12.50;10.25;;;;;;;6.92;100.00;98582.38;5108907;28;20064;-70
2023/01/19 04:02:46;;;;;;;13.23;9.65;;;;;;;6.91;100.00;98586.88;5105627;28;20031;-70
2023/01/19 04:05:11;;;;;;;9.48;8.48;;;;;;;6.88;100.00;98602.34;5108451;28;20047;-70
2023/01/19 04:07:37;;;;;;;11.00;8.27;;;;;;;6.81;100.00;98614.59;5108779;28;20043;-70
2023/01/19 04:10:02;;;;;;;8.27;6.80;;;;;;;6.88;100.00;98643.16;5109199;28;20027;-70
2023/01/19 04:12:28;;;;;;;7.45;6.10;;;;;;;6.86;100.00;98641.63;5108800;28;20028;-70
2023/01/19 04:14:53;;;;;;;8.40;6.38;;;;;;;6.89;100.00;98654.63;5108466;28;20036;-70
2023/01/19 04:17:18;;;;;;;7.95;6.18;;;;;;;6.97;100.00;98641.41;5109174;28;20038;-71
2023/01/19 04:19:44;;;;;;;6.60;4.90;;;;;;;6.89;100.00;98633.31;5108904;28;20070;-70
2023/01/19 04:22:09;;;;;;;5.88;4.93;;;;;;;6.86;100.00;98638.94;5107208;28;20768;-70
2023/01/19 04:24:35;;;;;;;7.65;5.47;;;;;;;6.86;100.00;98629.13;5108963;28;20093;-70
2023/01/19 04:27:00;;;;;;;4.75;4.25;;;;;;;6.77;100.00;98622.06;5108853;28;20471;-70
2023/01/19 04:29:25;;;;;;;4.28;3.80;;;;;;;6.77;100.00;98621.22;5109171;28;20384;-70
2023/01/19 04:31:51;;;;;;;4.25;3.67;;;;;;;6.69;100.00;98611.34;5109163;28;20705;-70
2023/01/19 04:34:16;;;;;;;3.83;3.42;;;;;;;6.73;100.00;98618.03;5108596;28;20040;-69
2023/01/19 04:36:44;;;;;;;5.25;4.45;;;;;;;6.73;100.00;98606.53;5110788;28;20031;-69
2023/01/19 04:39:10;;;;;;;4.35;3.95;;;;;;;6.77;100.00;98582.09;5112386;28;20110;-69
2023/01/19 04:41:36;;;;;;;5.88;4.85;;;;;;;7.06;100.00;98603.16;5112227;28;20110;-69
2023/01/19 04:44:01;;;;;;;5.65;4.15;;;;;;;6.98;100.00;98598.63;5112377;28;20515;-68
2023/01/19 04:46:27;;;;;;;4.50;3.45;;;;;;;6.77;100.00;98592.75;5112405;28;20042;-69
2023/01/19 04:48:53;;;;;;;4.15;3.17;;;;;;;6.75;100.00;98613.38;5111936;28;20036;-69
2023/01/19 04:51:18;;;;;;;4.53;2.97;;;;;;;6.56;100.00;98613.53;5112367;28;20488;-69
2023/01/19 04:53:43;;;;;;;3.22;2.88;;;;;;;6.51;100.00;98621.13;5111177;28;20501;-69
2023/01/19 04:56:09;;;;;;;4.13;2.78;;;;;;;6.54;100.00;98639.47;5106538;28;20096;-69
2023/01/19 04:58:35;;;;;;;4.15;2.45;;;;;;;6.42;100.00;98638.00;5110071;28;20545;-69
2023/01/19 05:01:01;;;;;;;2.72;2.47;;;;;;;6.37;100.00;98628.78;5113295;27;20345;-69
2023/01/19 05:03:26;;;;;;;3.28;2.40;;;;;;;6.35;100.00;98636.94;5111147;28;20039;-69
2023/01/19 05:05:52;;;;;;;4.18;2.60;;;;;;;6.26;100.00;98642.31;5112150;28;21042;-69
2023/01/19 05:08:17;;;;;;;3.22;2.38;;;;;;;6.35;100.00;98636.94;5111894;28;20363;-69
2023/01/19 05:10:43;;;;;;;2.50;1.98;;;;;;;6.31;100.00;98650.69;5110616;28;20051;-69
2023/01/19 05:13:08;;;;;;;2.05;1.75;;;;;;;6.26;100.00;98653.78;5111453;27;20038;-69
2023/01/19 05:15:33;;;;;;;3.00;2.17;;;;;;;6.22;100.00;98640.91;5108505;28;20070;-69
2023/01/19 05:17:59;;;;;;;2.25;2.00;;;;;;;6.25;100.00;98662.75;5111360;27;20050;-69
2023/01/19 05:20:24;;;;;;;2.60;2.25;;;;;;;6.25;100.00;98669.91;5110524;28;20130;-69
2023/01/19 05:22:52;;;;;;;3.00;2.30;;;;;;;6.33;100.00;98664.69;5109004;28;20027;-69
2023/01/19 05:25:18;;;;;;;2.35;2.00;;;;;;;6.28;100.00;98659.81;5112796;27;20479;-69
2023/01/19 05:27:44;;;;;;;2.95;2.15;;;;;;;6.26;100.00;98664.44;5111258;28;20384;-69
2023/01/19 05:30:13;;;;;;;2.55;2.35;;;;;;;6.28;100.00;98673.13;5111554;28;20026;-69
2023/01/19 05:32:38;;;;;;;2.63;2.35;;;;;;;6.13;100.00;98669.25;5114075;27;20038;-69
2023/01/19 05:35:04;;;;;;;2.38;2.00;;;;;;;6.07;100.00;98658.38;5111496;28;20024;-69
2023/01/19 05:37:31;;;;;;;1.73;1.52;;;;;;;5.98;100.00;98643.28;5111967;28;20111;-69
2023/01/19 05:39:57;;;;;;;1.40;1.20;;;;;;;6.22;100.00;98659.53;5110822;28;20043;-69
2023/01/19 05:42:22;;;;;;;1.83;1.35;;;;;;;6.05;100.00;98650.53;5111699;28;20036;-69
2023/01/19 05:44:48;;;;;;;1.70;1.45;;;;;;;6.06;100.00;98678.81;5111606;28;20110;-69
2023/01/19 05:47:13;;;;;;;1.83;1.50;;;;;;;5.99;100.00;98680.41;5108836;28;20025;-69
2023/01/19 05:49:39;;;;;;;1.83;1.60;;;;;;;5.89;100.00;98690.22;5111584;28;20048;-69
2023/01/19 05:52:04;;;;;;;1.90;1.25;;;;;;;5.97;100.00;98702.81;5111330;28;20437;-69
2023/01/19 05:54:30;;;;;;;1.75;1.48;;;;;;;5.92;100.00;98707.72;5110421;28;20045;-69
2023/01/19 05:56:55;;;;;;;1.52;1.38;;;;;;;5.78;100.00;98698.38;5111203;28;20414;-69
2023/01/19 05:59:23;;;;;;;1.65;1.50;;;;;;;5.88;100.00;98711.66;5111696;28;20032;-69
2023/01/19 06:01:52;;;;;;;3.25;1.40;;;;;;;5.89;100.00;98711.50;5111158;28;20033;-69
2023/01/19 06:04:19;;;;;;;1.65;1.52;;;;;;;5.91;100.00;98728.19;5110868;27;20501;-69
2023/01/19 06:06:47;;;;;;;3.42;2.38;;;;;;;5.83;100.00;98717.41;5111292;28;20012;-69
2023/01/19 06:09:13;;;;;;;6.03;3.55;;;;;;;5.75;100.00;98711.94;5111161;28;20031;-69
2023/01/19 06:11:38;;;;;;;5.38;3.60;;;;;;;5.84;100.00;98711.09;5110821;28;20574;-69
2023/01/19 06:14:04;;;;;;;7.30;4.15;;;;;;;5.86;100.00;98708.28;5109574;28;20110;-69
2023/01/19 06:16:29;;;;;;;7.43;3.90;;;;;;;5.77;100.00;98709.16;5110974;28;20476;-69
2023/01/19 06:18:55;;;;;;;4.95;2.58;;;;;;;5.74;100.00;98720.06;5111116;28;20484;-69
2023/01/19 06:21:20;;;;;;;4.55;2.25;;;;;;;5.71;100.00;98721.16;5110648;28;20020;-69
2023/01/19 06:23:46;;;;;;;3.08;1.77;;;;;;;5.78;100.00;98726.78;5110441;28;20352;-69
2023/01/19 06:26:12;;;;;;;3.95;2.55;;;;;;;5.85;100.00;98730.56;5110522;28;20035;-69
2023/01/19 06:28:37;;;;;;;4.25;2.67;;;;;;;5.88;100.00;98732.94;5109924;28;20157;-69
2023/01/19 06:31:03;;;;;;;4.22;2.28;;;;;;;5.76;100.00;98721.59;5110775;28;20499;-69
2023/01/19 06:33:29;;;;;;;5.15;2.50;;;;;;;5.81;100.00;98727.34;5109232;28;20039;-69
2023/01/19 06:35:55;;;;;;;3.83;2.38;;;;;;;5.81;100.00;98732.66;5112939;27;20034;-69
2023/01/19 06:38:21;;;;;;;3.30;2.10;;;;;;;5.67;100.00;98709.16;5110265;28;20032;-69
2023/01/19 06:40:57;;;;;;;3.38;2.13;;;;;;;5.73;100.00;98723.69;5110402;28;20449;-69
2023/01/19 06:43:23;;;;;;;4.40;2.30;;;;;;;5.75;100.00;98730.56;5108846;28;20039;-69
2023/01/19 06:45:49;;;;;;;2.10;1.88;;;;;;;5.76;100.00;98726.91;5110318;28;20034;-69
2023/01/19 06:48:14;;;;;;;2.70;2.13;;;;;;;5.69;100.00;98739.13;5109192;28;20106;-69
2023/01/19 06:50:40;;;;;;;2.13;1.65;;;;;;;5.67;100.00;98733.09;5110087;28;20048;-69
2023/01/19 06:53:06;;;;;;;3.35;1.77;;;;;;;5.68;100.00;98732.09;5109961;28;20019;-69
2023/01/19 06:55:31;;;;;;;1.77;1.58;;;;;;;5.63;100.00;98739.69;5110258;28;20070;-69
2023/01/19 06:57:58;;;;;;;1.63;1.52;;;;;;;5.71;100.00;98746.94;5109585;28;20023;-69
2023/01/19 07:00:24;;;;;;;2.83;1.95;;;;;;;5.67;100.00;98743.72;5109978;28;20044;-69
2023/01/19 07:02:50;;;;;;;5.05;2.00;;;;;;;5.72;100.00;98760.09;5108236;28;20054;-69
2023/01/19 07:05:15;;;;;;;1.98;1.70;;;;;;;5.75;100.00;98766.94;5109417;28;20035;-69
2023/01/19 07:07:42;;;;;;;2.35;1.73;;;;;;;5.74;100.00;98759.97;5109728;28;20042;-69
2023/01/19 07:10:10;;;;;;;6.05;3.03;;;;;;;5.79;100.00;98761.22;5109698;28;20035;-69
2023/01/19 07:12:36;;;;;;;3.03;2.03;;;;;;;5.83;100.00;98773.28;5109525;28;20031;-69
2023/01/19 07:15:02;;;;;;;2.00;1.80;;;;;;;5.78;100.00;98769.31;5109721;27;20480;-69
2023/01/19 07:17:28;;;;;;;2.20;1.85;;;;;;;5.70;100.00;98764.72;5109760;28;20035;-69
2023/01/19 07:19:53;;;;;;;2.22;1.70;;;;;;;5.71;100.00;98781.53;5109335;28;20608;-69
2023/01/19 07:22:19;;;;;;;3.47;2.35;;;;;;;5.72;100.00;98783.19;5109755;28;20088;-68
2023/01/19 07:24:44;;;;;;;2.75;1.80;;;;;;;5.70;100.00;98793.13;5109703;28;20090;-68
2023/01/19 07:27:15;;;;;;;4.35;1.88;;;;;;;5.70;100.00;98785.13;5109594;28;20047;-69
2023/01/19 07:29:41;;;;;;;4.38;2.20;;;;;;;5.69;100.00;98783.47;5109470;28;20098;-68
2023/01/19 07:32:07;;;;;;;3.75;2.28;;;;;;;5.70;100.00;98799.28;5109495;28;20036;-68
2023/01/19 07:34:33;;;;;;;3.85;2.20;;;;;;;5.68;100.00;98792.44;5108481;28;20032;-69
2023/01/19 07:36:59;;;;;;;3.58;2.20;;;;;;;5.72;100.00;98792.03;5107450;28;20415;-69
2023/01/19 07:39:24;;;;;;;2.90;2.00;;;;;;;5.74;100.00;98803.34;5109442;28;20031;-69
2023/01/19 07:41:49;;;;;;;2.65;2.15;;;;;;;5.72;100.00;98807.13;5109542;28;20019;-68
2023/01/19 07:44:15;;;;;;;2.88;2.25;;;;;;;5.70;100.00;98798.44;5107397;28;20036;-69
2023/01/19 07:46:42;;;;;;;5.38;2.70;;;;;;;5.72;100.00;98799.16;5107932;28;20530;-69
2023/01/19 07:49:08;;;;;;;4.78;2.67;;;;;;;5.76;100.00;98789.91;5108890;28;20702;-68
2023/01/19 07:51:33;;;;;;;4.72;3.58;;;;;;;5.68;100.00;98785.28;5109073;28;20027;-68
2023/01/19 07:54:00;;;;;;;7.28;4.10;;;;;;;5.70;100.00;98786.00;5109207;28;20028;-69
2023/01/19 07:56:28;;;;;;;6.03;3.40;;;;;;;5.69;100.00;98788.78;5108942;28;20027;-69
2023/01/19 07:58:54;;;;;;;6.40;3.13;;;;;;;5.64;100.00;98799.03;5109085;28;20030;-68
2023/01/19 08:01:19;;;;;;;8.57;4.32;;;;;;;5.68;100.00;98803.09;5107500;28;20456;-69
2023/01/19 08:03:47;;;;;;;6.47;4.50;;;;;;;5.64;100.00;98805.16;5108658;28;20487;-69
2023/01/19 08:06:28;;;;;;;7.65;5.10;;;;;;;5.70;100.00;98815.25;5109090;28;20394;-68
2023/01/19 08:08:54;;;;;;;10.00;5.03;;;;;;;5.69;100.00;98802.09;5109084;28;20114;-69
2023/01/19 08:11:19;;;;;;;9.73;5.40;;;;;;;5.67;100.00;98809.38;5108457;28;20153;-69
2023/01/19 08:13:45;;;;;;;12.00;5.70;;;;;;;5.65;100.00;98806.88;5108842;28;20412;-68
2023/01/19 08:16:10;;;;;;;10.60;6.07;;;;;;;5.62;100.00;98795.66;5107509;28;20024;-69
2023/01/19 08:18:35;;;;;;;9.57;4.90;;;;;;;5.58;100.00;98797.75;5108092;28;20189;-69
2023/01/19 08:21:01;;;;;;;6.28;4.30;;;;;;;5.56;100.00;98810.38;5107832;28;20475;-69
2023/01/19 08:23:27;;;;;;;5.80;3.85;;;;;;;5.56;100.00;98820.16;5108802;28;20028;-69
2023/01/19 08:25:52;;;;;;;5.80;4.22;;;;;;;5.60;100.00;98821.53;5109000;28;20456;-69
2023/01/19 08:28:18;;;;;;;43.67;19.65;;;;;;;5.63;100.00;98816.78;5108734;28;20059;-68
2023/01/19 08:30:43;;;;;;;25.20;12.25;;;;;;;5.76;100.00;98835.97;5108532;28;20026;-69
2023/01/19 08:33:10;;;;;;;19.48;9.05;;;;;;;5.87;100.00;98825.19;5108740;28;20016;-68
2023/01/19 08:35:38;;;;;;;28.35;12.13;;;;;;;5.66;100.00;98811.19;5108256;28;20499;-68
2023/01/19 08:38:05;;;;;;;18.58;10.60;;;;;;;5.60;100.00;98792.28;5106961;28;20104;-68
2023/01/19 08:40:33;;;;;;;12.05;6.07;;;;;;;5.50;100.00;98778.16;5108746;28;20080;-69
2023/01/19 08:43:02;;;;;;;8.52;5.22;;;;;;;5.52;100.00;98785.03;5107537;28;20028;-68
2023/01/19 08:45:29;;;;;;;7.75;6.00;;;;;;;5.52;100.00;98795.69;5107472;28;20030;-68
2023/01/19 08:47:57;;;;;;;8.32;5.75;;;;;;;5.50;100.00;98797.63;5108486;28;20468;-68
2023/01/19 08:50:26;;;;;;;7.03;6.03;;;;;;;5.52;100.00;98822.25;5108548;28;20051;-68
2023/01/19 08:52:55;;;;;;;9.48;7.00;;;;;;;5.65;100.00;98832.63;5108770;28;20035;-69
2023/01/19 08:55:21;;;;;;;7.85;6.47;;;;;;;5.58;100.00;98845.59;5108432;28;20082;-68
2023/01/19 08:57:50;;;;;;;7.40;5.97;;;;;;;5.58;100.00;98853.59;5104430;28;20059;-68
2023/01/19 09:00:16;;;;;;;7.15;5.70;;;;;;;5.56;100.00;98849.41;5105302;28;20032;-68
2023/01/19 09:02:41;;;;;;;6.25;5.40;;;;;;;5.71;100.00;98856.00;5108978;28;20290;-68
2023/01/19 09:05:07;;;;;;;5.93;4.43;;;;;;;5.55;100.00;98835.25;5107464;28;20028;-68
2023/01/19 09:07:32;;;;;;;7.13;4.65;;;;;;;5.60;100.00;98841.00;5108344;28;20031;-68
2023/01/19 09:09:58;;;;;;;6.05;4.50;;;;;;;5.59;100.00;98841.13;5108527;28;20036;-68
2023/01/19 09:12:23;;;;;;;6.68;3.92;;;;;;;5.56;100.00;98828.97;5108385;28;20030;-69
2023/01/19 09:14:48;;;;;;;6.38;4.07;;;;;;;5.55;100.00;98831.78;5108369;28;20024;-69
2023/01/19 09:17:16;;;;;;;7.05;5.00;;;;;;;5.60;100.00;98833.03;5107082;28;20059;-69
2023/01/19 09:19:42;;;;;;;6.40;4.75;;;;;;;5.61;100.00;98825.91;5108006;28;20032;-68
2023/01/19 09:22:08;;;;;;;5.13;3.63;;;;;;;5.63;100.00;98823.91;5109308;28;20038;-68
2023/01/19 09:24:33;;;;;;;10.65;4.32;;;;;;;5.74;100.00;98842.41;5111736;27;20047;-68
2023/01/19 09:27:00;;;;;;;5.97;4.30;;;;;;;5.86;100.00;98836.81;5111920;28;20027;-68
2023/01/19 09:29:25;;;;;;;5.20;4.22;;;;;;;5.64;100.00;98825.63;5110113;27;20031;-68
2023/01/19 09:31:51;;;;;;;6.40;4.40;;;;;;;5.72;100.00;98839.91;5108178;28;20020;-68
2023/01/19 09:34:16;;;;;;;5.70;3.90;;;;;;;5.69;100.00;98848.16;5111597;28;20655;-68
2023/01/19 09:36:41;;;;;;;5.32;3.50;;;;;;;5.96;100.00;98853.63;5111409;28;20047;-68
2023/01/19 09:39:08;;;;;;;4.47;3.58;;;;;;;5.79;100.00;98851.66;5111229;28;20038;-68
2023/01/19 09:41:37;;;;;;;5.85;3.78;;;;;;;5.73;100.00;98849.53;5109523;27;20476;-68
2023/01/19 09:44:03;;;;;;;6.78;4.38;;;;;;;5.74;100.00;98853.88;5111082;27;20034;-68
2023/01/19 09:46:34;;;;;;;5.43;3.88;;;;;;;5.76;100.00;98848.41;5110189;28;20023;-69
2023/01/19 09:49:10;;;;;;;6.38;4.30;;;;;;;5.78;100.00;98842.00;5110217;28;20523;-68
2023/01/19 09:51:39;;;;;;;5.53;4.20;;;;;;;5.84;100.00;98849.41;5110983;27;20129;-68
2023/01/19 09:54:14;;;;;;;9.15;4.60;;;;;;;5.93;100.00;98853.91;5111159;28;21782;-69
2023/01/19 09:56:44;;;;;;;7.65;3.88;;;;;;;6.10;100.00;98861.16;5109885;28;20059;-68
2023/01/19 09:59:27;;;;;;;6.00;3.50;;;;;;;5.88;100.00;98857.97;5109663;27;20077;-68
2023/01/19 10:02:20;;;;;;;8.40;4.40;;;;;;;5.77;100.00;98850.94;5109006;28;20114;-68
2023/01/19 10:04:59;;;;;;;7.13;4.30;;;;;;;5.73;100.00;98852.19;5109475;28;20467;-68
2023/01/19 10:07:27;;;;;;;6.20;4.72;;;;;;;5.71;100.00;98862.13;5110221;28;20023;-68
2023/01/19 10:10:08;;;;;;;8.45;5.35;;;;;;;5.62;100.00;98844.38;5110869;28;20059;-68
2023/01/19 10:13:10;;;;;;;6.15;4.90;;;;;;;5.69;100.00;98849.97;5110473;28;20027;-69
2023/01/19 10:15:57;;;;;;;8.15;5.78;;;;;;;5.93;100.00;98848.56;5108427;28;20110;-68
2023/01/19 10:18:30;;;;;;;5.65;4.47;;;;;;;6.00;100.00;98846.22;5109623;28;20364;-68
2023/01/19 10:21:00;;;;;;;8.55;4.70;;;;;;;5.97;100.00;98843.81;5110030;28;20015;-68
2023/01/19 10:24:00;;;;;;;9.02;5.47;;;;;;;5.76;100.00;98830.66;5110828;28;20039;-68
2023/01/19 10:26:40;;;;;;;11.23;6.80;;;;;;;5.79;100.00;98851.66;5107126;28;20088;-68
2023/01/19 10:29:21;;;;;;;11.82;6.97;;;;;;;5.70;100.00;98857.78;5108519;28;20084;-68
2023/01/19 10:31:50;;;;;;;15.43;8.10;;;;;;;5.72;100.00;98836.38;5110799;28;20023;-68
2023/01/19 10:34:19;;;;;;;11.48;7.22;;;;;;;5.75;100.00;98844.94;5110313;28;20038;-68
2023/01/19 10:36:48;;;;;;;9.43;6.03;;;;;;;5.67;100.00;98857.25;5108470;28;20031;-68
2023/01/19 10:39:17;;;;;;;9.45;6.55;;;;;;;5.59;100.00;98868.59;5108933;28;20049;-68
2023/01/19 10:41:50;;;;;;;10.20;6.47;;;;;;;5.63;100.00;98864.66;5109066;28;20039;-68
2023/01/19 10:44:27;;;;;;;10.88;6.53;;;;;;;5.62;100.00;98865.66;5110320;28;20032;-68
2023/01/19 10:46:57;;;;;;;10.80;5.60;;;;;;;5.80;100.00;98863.94;5110019;28;20077;-68
2023/01/19 10:49:25;;;;;;;9.95;5.32;;;;;;;5.75;100.00;98870.69;5109988;28;20602;-68
2023/01/19 10:51:51;;;;;;;7.07;4.93;;;;;;;5.82;100.00;98858.53;5110068;28;20042;-68
2023/01/19 10:54:19;;;;;;;9.05;5.25;;;;;;;5.86;100.00;98863.44;5108856;28;20031;-68
2023/01/19 10:56:52;;;;;;;6.75;4.90;;;;;;;5.86;100.00;98859.91;5109377;28;20023;-68
2023/01/19 10:59:44;;;;;;;7.53;5.07;;;;;;;5.89;100.00;98862.31;5109910;28;20027;-68
2023/01/19 11:02:26;;;;;;;7.45;5.20;;;;;;;5.88;100.00;98844.66;5109878;28;20047;-68
2023/01/19 11:04:55;;;;;;;6.85;4.53;;;;;;;5.88;100.00;98850.84;5109889;28;20816;-67
2023/01/19 11:07:22;;;;;;;10.07;6.95;;;;;;;5.88;100.00;98839.34;5109835;28;20085;-67
2023/01/19 11:09:49;;;;;;;7.90;5.90;;;;;;;6.02;100.00;98845.06;5110165;28;20442;-68
2023/01/19 11:12:20;;;;;;;7.22;5.03;;;;;;;6.06;100.00;98849.13;5109681;28;20039;-67
2023/01/19 11:14:48;;;;;;;7.18;4.63;;;;;;;6.13;100.00;98852.88;5108332;28;20035;-67
2023/01/19 11:17:32;;;;;;;7.10;4.85;;;;;;;6.03;100.00;98843.25;5109851;28;20467;-68
2023/01/19 11:20:00;;;;;;;6.30;4.72;;;;;;;6.08;100.00;98852.50;5109392;28;20128;-68
2023/01/19 11:22:31;;;;;;;6.07;5.10;;;;;;;6.07;100.00;98847.31;5109552;28;20042;-68
2023/01/19 11:25:02;;;;;;;9.75;5.75;;;;;;;6.08;100.00;98864.94;5109314;28;20424;-68
2023/01/19 11:27:29;;;;;;;6.90;5.18;;;;;;;6.22;100.00;98853.84;5106874;28;20024;-68
2023/01/19 11:30:04;;;;;;;9.32;5.53;;;;;;;6.19;100.00;98859.50;5107852;28;20035;-68
2023/01/19 11:32:32;;;;;;;6.40;5.00;;;;;;;6.17;100.00;98861.44;5109451;28;20023;-68
2023/01/19 11:34:58;;;;;;;7.25;5.00;;;;;;;6.18;100.00;98869.28;5109482;28;20352;-69
2023/01/19 11:37:27;;;;;;;5.60;4.47;;;;;;;6.28;100.00;98871.91;5109326;28;20524;-68
2023/01/19 11:39:56;;;;;;;6.28;4.40;;;;;;;6.22;100.00;98870.66;5109072;28;20023;-68
2023/01/19 11:42:22;;;;;;;5.45;3.45;;;;;;;6.20;100.00;98880.63;5109409;28;20048;-68